Hartford/Springfield (BDL/KBDL)

Information

Location
Hartford, CT
Local Time
07:39 / 7:39 am
GMT Time
11:39 / 11:39 am
Gates
A9
No FAA reported delays
METAR KBDL 241051Z 34005KT 10SM FEW120 SCT150 BKN180 OVC250 13/12 A2976 RMK AO2 SLP079 T01280117
TAF KBDL 240823Z 2408/2512 VRB04KT P6SM BKN130 OVC250 FM241100 00000KT P6SM VCSH OVC100 FM241300 08005KT P6SM OVC090 FM251100 05006KT P6SM VCSH OVC060